createdAt,value
2022-08-07T00:00:39.860Z,2.00
2022-08-07T00:03:09.164Z,2.30
2022-08-07T00:05:37.418Z,1.83
2022-08-07T00:08:05.622Z,1.83
2022-08-07T00:10:36.480Z,2.08
2022-08-07T00:13:23.809Z,2.20
2022-08-07T00:15:53.819Z,2.08
2022-08-07T00:18:25.093Z,1.98
2022-08-07T00:21:03.522Z,2.20
2022-08-07T00:23:37.454Z,2.30
2022-08-07T00:26:13.024Z,1.90
2022-08-07T00:28:56.774Z,2.15
2022-08-07T00:31:26.125Z,2.25
2022-08-07T00:34:09.008Z,1.77
2022-08-07T00:36:38.516Z,2.53
2022-08-07T00:39:06.190Z,2.35
2022-08-07T00:41:37.412Z,2.45
2022-08-07T00:44:13.023Z,2.00
2022-08-07T00:46:42.631Z,2.10
2022-08-07T00:49:10.936Z,2.05
2022-08-07T00:51:58.906Z,2.72
2022-08-07T00:54:26.316Z,2.30
2022-08-07T00:56:53.695Z,1.98
2022-08-07T00:59:35.068Z,2.00
2022-08-07T01:02:13.935Z,2.30
2022-08-07T01:04:58.281Z,2.28
2022-08-07T01:07:28.111Z,2.25
2022-08-07T01:10:04.218Z,2.10
2022-08-07T01:12:33.084Z,2.35
2022-08-07T01:15:03.941Z,2.40
2022-08-07T01:17:32.724Z,2.70
2022-08-07T01:20:16.845Z,2.72
2022-08-07T01:23:00.567Z,2.60
2022-08-07T01:25:54.514Z,2.58
2022-08-07T01:28:22.722Z,2.40
2022-08-07T01:30:52.742Z,2.40
2022-08-07T01:33:22.481Z,2.60
2022-08-07T01:35:54.474Z,2.22
2022-08-07T01:38:34.138Z,2.30
2022-08-07T01:41:05.499Z,2.17
2022-08-07T01:43:38.537Z,2.80
2022-08-07T01:48:42.179Z,2.60
2022-08-07T01:52:02.074Z,2.70
2022-08-07T01:54:13.025Z,2.65
2022-08-07T01:57:04.533Z,2.70
2022-08-07T01:59:54.996Z,2.53
2022-08-07T02:02:32.614Z,2.67
2022-08-07T02:05:48.207Z,2.70
2022-08-07T02:08:16.929Z,2.85
2022-08-07T02:10:48.663Z,2.78
2022-08-07T02:13:47.101Z,2.60
2022-08-07T02:16:17.880Z,3.00
2022-08-07T02:18:51.207Z,2.62
2022-08-07T02:21:19.399Z,2.85
2022-08-07T02:23:47.838Z,2.10
2022-08-07T02:26:32.366Z,2.87
2022-08-07T02:29:05.292Z,2.83
2022-08-07T02:31:41.241Z,2.78
2022-08-07T02:34:11.186Z,3.00
2022-08-07T02:36:45.237Z,3.35
2022-08-07T02:39:16.206Z,2.80
2022-08-07T02:42:10.362Z,2.55
2022-08-07T02:44:45.809Z,2.83
2022-08-07T02:47:35.112Z,3.08
2022-08-07T02:50:06.847Z,2.80
2022-08-07T02:52:44.073Z,3.10
2022-08-07T02:55:27.948Z,3.42
2022-08-07T02:58:12.099Z,2.92
2022-08-07T03:00:41.896Z,2.80
2022-08-07T03:03:22.604Z,3.00
2022-08-07T03:05:52.140Z,3.15
2022-08-07T03:08:29.107Z,3.08
2022-08-07T03:10:58.520Z,3.08
2022-08-07T03:13:26.633Z,2.85
2022-08-07T03:15:56.345Z,3.17
2022-08-07T03:18:34.697Z,3.42
2022-08-07T03:21:08.691Z,3.12
2022-08-07T03:24:18.462Z,2.90
2022-08-07T03:26:33.072Z,2.62
2022-08-07T03:29:03.472Z,2.95
2022-08-07T03:31:42.460Z,3.00
2022-08-07T03:34:18.453Z,2.80
2022-08-07T03:36:51.815Z,2.60
2022-08-07T03:39:45.919Z,2.65
2022-08-07T03:42:09.311Z,2.90
2022-08-07T03:44:37.940Z,3.28
2022-08-07T03:47:13.378Z,2.90
2022-08-07T03:49:47.653Z,2.65
2022-08-07T03:52:22.638Z,2.75
2022-08-07T03:55:06.803Z,2.78
2022-08-07T03:58:08.689Z,2.62
2022-08-07T04:00:29.262Z,2.60
2022-08-07T04:02:59.630Z,3.03
2022-08-07T04:05:40.754Z,2.50
2022-08-07T04:08:12.538Z,2.60
2022-08-07T04:10:54.501Z,2.75
2022-08-07T04:14:10.406Z,2.87
2022-08-07T04:16:30.994Z,2.80
2022-08-07T04:19:03.845Z,2.87
2022-08-07T04:21:40.179Z,2.90
2022-08-07T04:24:33.727Z,2.80
2022-08-07T04:27:04.456Z,2.75
2022-08-07T04:29:40.309Z,2.85
2022-08-07T04:32:33.991Z,2.97
2022-08-07T04:35:11.483Z,2.65
2022-08-07T04:38:00.809Z,2.58
2022-08-07T04:40:31.390Z,2.80
2022-08-07T04:43:02.149Z,2.70
2022-08-07T04:48:51.024Z,2.87
2022-08-07T04:51:27.588Z,2.75
2022-08-07T04:54:33.385Z,2.62
2022-08-07T04:58:07.389Z,2.60
2022-08-07T05:00:12.246Z,2.87
2022-08-07T05:02:59.233Z,2.90
2022-08-07T05:05:52.833Z,2.47
2022-08-07T05:08:59.200Z,2.75
2022-08-07T05:11:26.323Z,2.70
2022-08-07T05:14:55.283Z,2.80
2022-08-07T05:17:11.915Z,3.00
2022-08-07T05:19:49.760Z,2.53
2022-08-07T05:22:26.786Z,2.60
2022-08-07T05:24:59.697Z,2.55
2022-08-07T05:28:03.503Z,2.80
2022-08-07T05:30:21.167Z,3.20
2022-08-07T05:33:03.264Z,2.67
2022-08-07T05:35:42.234Z,2.60
2022-08-07T05:38:11.079Z,2.33
2022-08-07T05:40:41.871Z,2.70
2022-08-07T05:43:19.408Z,2.62
2022-08-07T05:46:07.097Z,2.53
2022-08-07T05:48:34.815Z,2.28
2022-08-07T05:51:03.364Z,2.40
2022-08-07T05:54:12.780Z,2.03
2022-08-07T05:56:20.077Z,2.47
2022-08-07T05:59:00.061Z,2.47
2022-08-07T06:01:34.832Z,2.30
2022-08-07T06:04:04.995Z,2.40
2022-08-07T06:06:35.127Z,2.10
2022-08-07T06:09:04.663Z,2.55
2022-08-07T06:11:34.470Z,1.92
2022-08-07T06:14:11.921Z,2.10
2022-08-07T06:16:50.226Z,2.40
2022-08-07T06:19:57.666Z,2.03
2022-08-07T06:22:15.644Z,2.08
2022-08-07T06:25:00.900Z,1.90
2022-08-07T06:28:00.434Z,1.90
2022-08-07T06:30:24.017Z,2.00
2022-08-07T06:33:00.840Z,2.10
2022-08-07T06:35:38.949Z,2.20
2022-08-07T06:38:20.095Z,2.30
2022-08-07T06:40:50.516Z,1.80
2022-08-07T06:43:22.228Z,2.10
2022-08-07T06:45:56.332Z,2.08
2022-08-07T06:48:28.631Z,2.08
2022-08-07T06:50:59.418Z,2.25
2022-08-07T06:54:12.198Z,2.60
2022-08-07T06:56:49.791Z,2.80
2022-08-07T07:00:13.979Z,2.30
2022-08-07T07:02:48.777Z,2.45
2022-08-07T07:05:12.780Z,2.37
2022-08-07T07:07:59.472Z,2.20
2022-08-07T07:10:31.162Z,2.65
2022-08-07T07:13:56.103Z,2.03
2022-08-07T07:16:19.610Z,2.50
2022-08-07T07:18:51.511Z,2.35
2022-08-07T07:21:40.267Z,2.20
2022-08-07T07:24:20.579Z,2.45
2022-08-07T07:26:52.807Z,2.20
2022-08-07T07:29:57.269Z,2.28
2022-08-07T07:32:14.919Z,2.37
2022-08-07T07:34:45.751Z,2.22
2022-08-07T07:37:45.520Z,2.25
2022-08-07T07:40:14.637Z,2.12
2022-08-07T07:42:53.749Z,1.60
2022-08-07T07:46:37.965Z,1.77
2022-08-07T07:48:35.154Z,1.65
2022-08-07T07:51:07.932Z,1.55
2022-08-07T07:53:52.199Z,1.35
2022-08-07T07:56:29.938Z,1.40
2022-08-07T07:58:59.972Z,1.52
2022-08-07T08:02:01.707Z,1.30
2022-08-07T08:04:20.196Z,1.30
2022-08-07T08:06:54.343Z,1.30
2022-08-07T08:09:29.180Z,1.58
2022-08-07T08:12:01.883Z,1.40
2022-08-07T08:14:36.665Z,1.30
2022-08-07T08:17:55.497Z,1.60
2022-08-07T08:20:17.550Z,1.30
2022-08-07T08:23:09.440Z,1.30
2022-08-07T08:26:02.192Z,1.10
2022-08-07T08:28:38.268Z,1.48
2022-08-07T08:31:14.728Z,1.27
2022-08-07T08:33:49.604Z,1.40
2022-08-07T08:36:30.800Z,1.37
2022-08-07T08:39:02.190Z,1.00
2022-08-07T08:41:57.218Z,1.37
2022-08-07T08:44:44.848Z,1.20
2022-08-07T08:47:51.786Z,1.20
2022-08-07T08:50:39.099Z,1.37
2022-08-07T08:53:45.978Z,1.27
2022-08-07T08:56:24.206Z,1.73
2022-08-07T08:58:57.189Z,1.12
2022-08-07T09:01:44.116Z,1.25
2022-08-07T09:04:26.139Z,1.50
2022-08-07T09:07:11.850Z,1.10
2022-08-07T09:12:46.772Z,1.10
2022-08-07T09:16:24.812Z,1.35
2022-08-07T09:19:51.202Z,1.50
2022-08-07T09:24:31.902Z,1.05
2022-08-07T09:25:34.288Z,1.20
2022-08-07T09:30:00.473Z,1.17
2022-08-07T09:31:04.068Z,1.30
2022-08-07T09:33:58.232Z,1.45
2022-08-07T09:36:37.309Z,1.17
2022-08-07T09:39:55.249Z,1.60
2022-08-07T09:42:48.020Z,1.73
2022-08-07T09:47:25.245Z,2.03
2022-08-07T09:48:56.167Z,1.90
2022-08-07T09:52:09.928Z,2.25
2022-08-07T09:57:47.174Z,1.90
2022-08-07T10:00:16.167Z,2.00
2022-08-07T10:06:00.168Z,2.22
2022-08-07T10:08:58.368Z,2.22
2022-08-07T10:12:02.326Z,2.00
2022-08-07T10:15:15.386Z,2.40
2022-08-07T10:18:03.109Z,2.28
2022-08-07T10:21:19.559Z,2.75
2022-08-07T10:24:05.193Z,2.20
2022-08-07T10:26:58.926Z,2.40
2022-08-07T10:30:06.500Z,2.78
2022-08-07T10:32:59.731Z,2.53
2022-08-07T10:35:56.008Z,2.47
2022-08-07T10:38:49.061Z,2.40
2022-08-07T10:41:47.209Z,2.30
2022-08-07T10:44:28.508Z,2.30
2022-08-07T10:47:26.942Z,2.55
2022-08-07T10:50:25.876Z,2.70
2022-08-07T10:53:21.668Z,3.10
2022-08-07T10:56:02.233Z,2.35
2022-08-07T10:58:59.729Z,2.37
2022-08-07T11:01:35.515Z,2.22
2022-08-07T11:04:32.222Z,2.83
2022-08-07T11:07:59.150Z,2.50
2022-08-07T11:10:20.157Z,2.27
2022-08-07T11:13:04.279Z,2.05
2022-08-07T11:15:36.146Z,2.37
2022-08-07T11:18:12.707Z,2.17
2022-08-07T11:20:47.280Z,2.20
2022-08-07T11:23:38.856Z,2.55
2022-08-07T11:26:49.830Z,2.00
2022-08-07T11:29:48.300Z,1.90
2022-08-07T11:32:31.087Z,2.08
2022-08-07T11:35:01.371Z,1.87
2022-08-07T11:37:58.019Z,2.25
2022-08-07T11:40:39.644Z,2.03
2022-08-07T11:43:29.801Z,1.85
2022-08-07T11:46:36.600Z,2.00
2022-08-07T11:50:18.775Z,2.33
2022-08-07T11:52:48.011Z,1.95
2022-08-07T11:56:09.719Z,2.05
2022-08-07T11:58:20.798Z,2.10
2022-08-07T12:01:07.532Z,2.00
2022-08-07T12:04:03.302Z,1.90
2022-08-07T12:06:51.618Z,2.20
2022-08-07T12:09:31.810Z,2.30
2022-08-07T12:12:09.012Z,2.45
2022-08-07T12:14:55.701Z,2.40
2022-08-07T12:17:58.638Z,2.12
2022-08-07T12:20:36.674Z,2.47
2022-08-07T12:23:37.293Z,2.55
2022-08-07T12:26:29.968Z,2.50
2022-08-07T12:29:01.700Z,2.20
2022-08-07T12:32:01.986Z,2.20
2022-08-07T12:34:37.104Z,2.45
2022-08-07T12:37:16.225Z,2.10
2022-08-07T12:39:50.490Z,2.78
2022-08-07T12:42:27.222Z,2.65
2022-08-07T12:44:58.378Z,2.33
2022-08-07T12:47:43.926Z,2.35
2022-08-07T12:50:40.203Z,2.03
2022-08-07T12:53:22.579Z,2.53
2022-08-07T12:56:03.354Z,2.30
2022-08-07T13:01:14.044Z,2.17
2022-08-07T13:04:02.965Z,2.45
2022-08-07T13:06:32.197Z,2.28
2022-08-07T13:10:19.312Z,2.40
2022-08-07T13:12:22.633Z,2.35
2022-08-07T13:15:02.129Z,2.37
2022-08-07T13:17:41.131Z,2.60
2022-08-07T13:20:27.793Z,2.70
2022-08-07T13:23:59.757Z,2.55
2022-08-07T13:26:01.915Z,2.58
2022-08-07T13:28:39.761Z,2.30
2022-08-07T13:31:13.176Z,2.20
2022-08-07T13:34:30.162Z,2.25
2022-08-07T13:36:43.700Z,2.03
2022-08-07T13:39:28.562Z,2.50
2022-08-07T13:42:10.395Z,2.30
2022-08-07T13:44:39.719Z,2.15
2022-08-07T13:47:15.162Z,2.28
2022-08-07T13:50:33.289Z,2.35
2022-08-07T13:52:40.842Z,2.00
2022-08-07T13:58:28.103Z,2.10
2022-08-07T14:01:08.948Z,1.92
2022-08-07T14:04:05.088Z,2.30
2022-08-07T14:06:32.238Z,2.28
2022-08-07T14:09:04.785Z,2.45
2022-08-07T14:11:53.183Z,2.42
2022-08-07T14:14:26.871Z,2.40
2022-08-07T14:16:57.589Z,2.40
2022-08-07T14:20:40.725Z,2.03
2022-08-07T14:22:34.772Z,2.28
2022-08-07T14:25:12.453Z,2.37
2022-08-07T14:28:12.208Z,2.40
2022-08-07T14:30:40.612Z,2.33
2022-08-07T14:33:08.672Z,2.05
2022-08-07T14:35:45.488Z,1.83
2022-08-07T14:38:26.313Z,2.30
2022-08-07T14:41:02.114Z,2.22
2022-08-07T14:43:58.159Z,2.33
2022-08-07T14:46:30.516Z,2.22
2022-08-07T14:49:56.114Z,2.47
2022-08-07T14:54:41.693Z,2.37
2022-08-07T14:57:18.728Z,2.30
2022-08-07T15:00:04.749Z,2.17
2022-08-07T15:05:24.774Z,2.30
2022-08-07T15:07:54.216Z,2.53
2022-08-07T15:10:26.164Z,2.50
2022-08-07T15:12:58.413Z,2.30
2022-08-07T15:15:52.635Z,2.12
2022-08-07T15:18:33.905Z,2.05
2022-08-07T15:21:08.194Z,2.17
2022-08-07T15:25:04.038Z,2.00
2022-08-07T15:26:36.751Z,2.37
2022-08-07T15:30:06.637Z,2.12
2022-08-07T15:32:00.686Z,2.08
2022-08-07T15:34:50.379Z,2.00
2022-08-07T15:37:27.555Z,2.10
2022-08-07T15:39:59.012Z,2.67
2022-08-07T15:45:56.214Z,2.10
2022-08-07T15:48:25.780Z,2.00
2022-08-07T15:51:08.276Z,2.00
2022-08-07T15:53:52.861Z,1.87
2022-08-07T15:56:34.947Z,2.25
2022-08-07T15:59:06.152Z,2.15
2022-08-07T16:02:01.826Z,2.30
2022-08-07T16:04:33.637Z,2.28
2022-08-07T16:07:05.170Z,2.55
2022-08-07T16:10:05.990Z,2.60
2022-08-07T16:13:17.797Z,2.37
2022-08-07T16:16:02.273Z,2.12
2022-08-07T16:18:49.628Z,2.55
2022-08-07T16:22:17.887Z,2.03
2022-08-07T16:25:03.511Z,2.20
2022-08-07T16:27:47.351Z,2.15
2022-08-07T16:30:30.768Z,2.20
2022-08-07T16:34:01.404Z,2.40
2022-08-07T16:37:02.757Z,2.15
2022-08-07T16:39:33.542Z,2.05
2022-08-07T16:42:23.963Z,2.37
2022-08-07T16:46:33.755Z,2.30
2022-08-07T16:51:20.523Z,2.33
2022-08-07T16:54:01.837Z,2.47
2022-08-07T16:56:56.067Z,2.30
2022-08-07T16:59:46.773Z,2.78
2022-08-07T17:02:51.785Z,2.50
2022-08-07T17:06:18.856Z,2.37
2022-08-07T17:08:18.708Z,1.90
2022-08-07T17:10:57.377Z,2.30
2022-08-07T17:14:19.146Z,2.80
2022-08-07T17:16:57.315Z,2.50
2022-08-07T17:20:00.876Z,2.20
2022-08-07T17:22:42.553Z,2.30
2022-08-07T17:25:15.825Z,2.17
2022-08-07T17:28:19.498Z,2.50
2022-08-07T17:31:16.932Z,2.05
2022-08-07T17:34:32.831Z,2.28
2022-08-07T17:36:49.007Z,1.90
2022-08-07T17:39:58.413Z,2.30
2022-08-07T17:42:59.630Z,2.60
2022-08-07T17:45:28.268Z,2.97
2022-08-07T17:50:42.473Z,2.40
2022-08-07T17:54:01.334Z,1.70
2022-08-07T17:56:29.002Z,2.77
2022-08-07T17:59:01.811Z,2.22
2022-08-07T18:01:43.160Z,2.58
2022-08-07T18:07:19.653Z,2.05
2022-08-07T18:10:07.499Z,2.08
2022-08-07T18:12:50.353Z,2.62
2022-08-07T18:15:32.523Z,2.78
2022-08-07T18:18:46.614Z,3.55
2022-08-07T18:21:27.491Z,2.87
2022-08-07T18:24:07.656Z,3.20
2022-08-07T18:26:40.747Z,3.12
2022-08-07T18:30:08.344Z,2.70
2022-08-07T18:32:07.719Z,2.67
2022-08-07T18:35:08.016Z,3.00
2022-08-07T18:38:58.250Z,2.30
2022-08-07T18:40:53.905Z,2.30
2022-08-07T18:43:49.671Z,2.15
2022-08-07T18:46:35.006Z,1.80
2022-08-07T18:50:31.018Z,2.40
2022-08-07T18:52:35.222Z,2.83
2022-08-07T18:55:43.173Z,2.00
2022-08-07T18:58:26.110Z,2.10
2022-08-07T19:02:18.264Z,1.65
2022-08-07T19:04:25.028Z,1.60
2022-08-07T19:07:35.143Z,2.00
2022-08-07T19:10:14.877Z,1.77
2022-08-07T19:13:10.123Z,1.73
2022-08-07T19:16:04.329Z,1.62
2022-08-07T19:19:13.221Z,1.60
2022-08-07T19:21:56.045Z,2.00
2022-08-07T19:24:31.035Z,1.73
2022-08-07T19:28:31.057Z,1.98
2022-08-07T19:31:06.290Z,1.58
2022-08-07T19:32:50.858Z,1.70
2022-08-07T19:35:22.658Z,1.58
2022-08-07T19:37:57.498Z,1.55
2022-08-07T19:40:31.772Z,1.83
2022-08-07T19:43:10.562Z,1.60
2022-08-07T19:46:07.697Z,1.65
2022-08-07T19:48:32.111Z,1.70
2022-08-07T19:51:20.068Z,1.52
2022-08-07T19:54:32.447Z,1.62
2022-08-07T19:57:52.006Z,1.70
2022-08-07T19:59:41.195Z,1.42
2022-08-07T20:02:19.481Z,1.30
2022-08-07T20:04:50.273Z,1.37
2022-08-07T20:07:46.918Z,1.30
2022-08-07T20:10:38.345Z,1.10
2022-08-07T20:13:05.944Z,1.08
2022-08-07T20:15:37.049Z,1.20
2022-08-07T20:18:14.693Z,1.12
2022-08-07T20:20:48.427Z,1.55
2022-08-07T20:23:40.281Z,0.98
2022-08-07T20:26:10.000Z,1.02
2022-08-07T20:28:39.062Z,1.30
2022-08-07T20:31:21.360Z,0.85
2022-08-07T20:33:56.654Z,1.15
2022-08-07T20:36:29.669Z,1.10
2022-08-07T20:38:59.645Z,1.10
2022-08-07T20:41:38.003Z,1.07
2022-08-07T20:44:12.324Z,1.00
2022-08-07T20:46:43.761Z,1.00
2022-08-07T20:50:00.920Z,0.98
2022-08-07T20:52:16.468Z,0.80
2022-08-07T20:54:54.100Z,1.10
2022-08-07T20:57:25.011Z,0.85
2022-08-07T21:00:05.227Z,1.30
2022-08-07T21:02:58.729Z,1.25
2022-08-07T21:05:50.919Z,0.93
2022-08-07T21:09:02.917Z,0.88
2022-08-07T21:11:50.144Z,1.05
2022-08-07T21:14:32.610Z,1.02
2022-08-07T21:18:04.019Z,0.95
2022-08-07T21:20:04.669Z,1.40
2022-08-07T21:22:39.767Z,1.10
2022-08-07T21:25:39.118Z,0.80
2022-08-07T21:28:48.013Z,1.00
2022-08-07T21:32:10.975Z,0.82
2022-08-07T21:34:32.618Z,1.10
2022-08-07T21:37:04.085Z,1.05
2022-08-07T21:39:56.477Z,1.10
2022-08-07T21:43:03.515Z,0.90
2022-08-07T21:46:08.438Z,1.20
2022-08-07T21:48:59.979Z,0.90
2022-08-07T21:51:27.330Z,1.10
2022-08-07T21:54:12.740Z,1.10
2022-08-07T21:57:31.460Z,0.93
2022-08-07T22:00:22.925Z,0.98
2022-08-07T22:03:17.101Z,1.02
2022-08-07T22:06:02.059Z,0.90
2022-08-07T22:11:03.938Z,0.80
2022-08-07T22:13:51.985Z,0.90
2022-08-07T22:16:44.690Z,1.10
2022-08-07T22:19:30.306Z,0.95
2022-08-07T22:22:17.612Z,0.70
2022-08-07T22:24:54.660Z,0.77
2022-08-07T22:28:08.391Z,0.85
2022-08-07T22:30:21.872Z,1.12
2022-08-07T22:33:09.333Z,1.00
2022-08-07T22:35:46.287Z,1.10
2022-08-07T22:38:25.597Z,0.70
2022-08-07T22:41:02.969Z,0.95
2022-08-07T22:43:39.762Z,0.80
2022-08-07T22:47:03.069Z,1.05
2022-08-07T22:49:37.963Z,1.33
2022-08-07T22:52:36.920Z,0.95
2022-08-07T22:55:22.542Z,1.00
2022-08-07T22:58:12.432Z,0.73
2022-08-07T23:01:06.242Z,0.70
2022-08-07T23:03:59.125Z,0.90
2022-08-07T23:06:50.038Z,0.73
2022-08-07T23:10:05.219Z,0.90
2022-08-07T23:12:51.275Z,0.80
2022-08-07T23:16:06.063Z,0.75
2022-08-07T23:19:16.950Z,0.90
2022-08-07T23:21:56.533Z,0.70
2022-08-07T23:24:38.780Z,1.20
2022-08-07T23:28:20.575Z,0.82
2022-08-07T23:31:06.280Z,0.98
2022-08-07T23:34:22.553Z,0.90
2022-08-07T23:37:20.366Z,1.00
2022-08-07T23:40:28.252Z,0.88
2022-08-07T23:43:19.764Z,1.20
2022-08-07T23:46:10.963Z,0.80
2022-08-07T23:48:58.758Z,0.82
2022-08-07T23:53:08.845Z,0.80
2022-08-07T23:54:43.830Z,1.02
2022-08-07T23:57:32.455Z,1.00
